Killeen — WDF3110 — position and weather

sailwx.info

Track history (hours):
 
Tides and Currents Weather Stations Pressure Air Temp Water Temp Dewpoint Dewpoint Depression Visibility Wind Speed Wind Dir Waves Ship Positions

Killeen

Owner: C Ray Inc, San Diego, CA. More information available from US FCC via Universal Licensing System and Coast Guard Vessel Documentation Center.

Last reported at 2017-Oct-17 15:12 UTC. Time now 2017-Oct-18 04:01 UTC.
Position N 32°44' W 117°11'.

Length 18 m; draft 2.5 m.

Type: Towing. MMSI: 367435980.

Date/timePositionNaut miles runAvg speedWind from/ knotsBaromVisibWave heightAir tempDewpointWater temp
2017-Oct-17 15:12N 32°44' W 117°11'  
2017-Oct-13 18:46N 32°42' W 117°09'0 0.2
2017-Oct-13 18:23N 32°42' W 117°09'0 0.1
2017-Oct-13 17:59N 32°42' W 117°09'2 4.5
2017-Oct-13 17:30N 32°43' W 117°11'0 0.9
2017-Oct-13 17:01N 32°43' W 117°11'2 4.4
2017-Oct-13 16:31N 32°43' W 117°13'2 3.2
2017-Oct-13 16:01N 32°43' W 117°12'1 1.1
2017-Oct-13 15:28N 32°43' W 117°11'2 4.1
2017-Oct-13 14:55N 32°42' W 117°09'0 0.0
2017-Oct-12 14:49N 32°42' W 117°09'0 0.0
2017-Oct-11 16:40N 32°42' W 117°09'0 0.0
2017-Oct-10 15:42N 32°42' W 117°09'0 0.0
2017-Oct-10 15:30N 32°42' W 117°09'0 0.0
2017-Oct-10 15:00N 32°42' W 117°09'0 0.0
2017-Oct-09 15:52N 32°42' W 117°09'2 4.6
2017-Oct-09 15:30N 32°43' W 117°10'1 2.2
2017-Oct-09 15:01N 32°44' W 117°11'0 0.0
2017-Oct-09 14:30N 32°44' W 117°11'2 4.6
2017-Oct-09 14:00N 32°43' W 117°13'3 6.5
2017-Oct-09 13:31N 32°42' W 117°10'  
Track history (hours):
 
Tides and Currents Weather Stations Pressure Air Temp Water Temp Dewpoint Dewpoint Depression Visibility Wind Speed Wind Dir Waves Ship Positions

Killeen

Owner: C Ray Inc, San Diego, CA. More information available from US FCC via Universal Licensing System and Coast Guard Vessel Documentation Center.

Last reported at 2017-Oct-17 15:12 UTC. Time now 2017-Oct-18 04:01 UTC.
Position N 32°44' W 117°11'.

Length 18 m; draft 2.5 m.

Type: Towing. MMSI: 367435980.

Date/timePositionNaut miles runAvg speedWind from/ knotsBaromVisibWave heightAir tempDewpointWater temp
2017-Oct-17 15:12N 32°44' W 117°11'  
2017-Oct-13 18:46N 32°42' W 117°09'0 0.2
2017-Oct-13 18:23N 32°42' W 117°09'0 0.1
2017-Oct-13 17:59N 32°42' W 117°09'2 4.5
2017-Oct-13 17:30N 32°43' W 117°11'0 0.9
2017-Oct-13 17:01N 32°43' W 117°11'2 4.4
2017-Oct-13 16:31N 32°43' W 117°13'2 3.2
2017-Oct-13 16:01N 32°43' W 117°12'1 1.1
2017-Oct-13 15:28N 32°43' W 117°11'2 4.1
2017-Oct-13 14:55N 32°42' W 117°09'0 0.0
2017-Oct-12 14:49N 32°42' W 117°09'0 0.0
2017-Oct-11 16:40N 32°42' W 117°09'0 0.0
2017-Oct-10 15:42N 32°42' W 117°09'0 0.0
2017-Oct-10 15:30N 32°42' W 117°09'0 0.0
2017-Oct-10 15:00N 32°42' W 117°09'0 0.0
2017-Oct-09 15:52N 32°42' W 117°09'2 4.6
2017-Oct-09 15:30N 32°43' W 117°10'1 2.2
2017-Oct-09 15:01N 32°44' W 117°11'0 0.0
2017-Oct-09 14:30N 32°44' W 117°11'2 4.6
2017-Oct-09 14:00N 32°43' W 117°13'3 6.5
2017-Oct-09 13:31N 32°42' W 117°10'  

Dump ship's entire track history